sensor_id;sensor_type;location;lat;lon;timestamp;pressure;altitude;pressure_sealevel;temperature;humidity
40794;BME280;26502;51.886;15.604;2023-05-12T00:02:19;100943.63;;;12.11;50.46
40794;BME280;26502;51.886;15.604;2023-05-12T00:07:25;100939.70;;;11.95;50.80
40794;BME280;26502;51.886;15.604;2023-05-12T00:17:37;100941.95;;;11.76;51.00
40794;BME280;26502;51.886;15.604;2023-05-12T00:22:43;100941.48;;;11.67;51.24
40794;BME280;26502;51.886;15.604;2023-05-12T00:27:49;100939.77;;;11.60;51.40
40794;BME280;26502;51.886;15.604;2023-05-12T00:32:55;100940.23;;;11.46;51.49
40794;BME280;26502;51.886;15.604;2023-05-12T00:38:02;100936.72;;;11.33;51.67
40794;BME280;26502;51.886;15.604;2023-05-12T00:43:08;100937.39;;;11.23;51.88
40794;BME280;26502;51.886;15.604;2023-05-12T00:48:15;100937.87;;;11.07;51.99
40794;BME280;26502;51.886;15.604;2023-05-12T00:53:21;100941.55;;;10.97;52.26
40794;BME280;26502;51.886;15.604;2023-05-12T00:58:28;100938.73;;;10.90;52.41
40794;BME280;26502;51.886;15.604;2023-05-12T01:03:34;100939.70;;;10.82;52.52
40794;BME280;26502;51.886;15.604;2023-05-12T01:08:42;100935.83;;;10.68;52.81
40794;BME280;26502;51.886;15.604;2023-05-12T01:13:48;100934.85;;;10.59;52.94
40794;BME280;26502;51.886;15.604;2023-05-12T01:18:56;100941.02;;;10.54;53.14
40794;BME280;26502;51.886;15.604;2023-05-12T01:24:06;100943.67;;;10.42;53.14
40794;BME280;26502;51.886;15.604;2023-05-12T01:29:14;100945.02;;;10.31;53.48
40794;BME280;26502;51.886;15.604;2023-05-12T01:34:20;100951.20;;;10.25;53.54
40794;BME280;26502;51.886;15.604;2023-05-12T01:39:29;100956.02;;;10.17;53.78
40794;BME280;26502;51.886;15.604;2023-05-12T01:44:35;100955.62;;;10.12;53.83
40794;BME280;26502;51.886;15.604;2023-05-12T01:49:41;100957.55;;;10.06;53.89
40794;BME280;26502;51.886;15.604;2023-05-12T01:54:51;100960.27;;;10.04;54.19
40794;BME280;26502;51.886;15.604;2023-05-12T01:59:59;100962.77;;;10.03;54.14
40794;BME280;26502;51.886;15.604;2023-05-12T02:05:07;100966.35;;;9.94;54.26
40794;BME280;26502;51.886;15.604;2023-05-12T02:10:13;100963.80;;;9.83;54.47
40794;BME280;26502;51.886;15.604;2023-05-12T02:15:21;100970.98;;;9.72;54.56
40794;BME280;26502;51.886;15.604;2023-05-12T02:20:27;100970.80;;;9.58;54.75
40794;BME280;26502;51.886;15.604;2023-05-12T02:25:33;100972.44;;;9.48;54.98
40794;BME280;26502;51.886;15.604;2023-05-12T02:30:43;100976.17;;;9.40;55.14
40794;BME280;26502;51.886;15.604;2023-05-12T02:35:49;100970.81;;;9.34;55.27
40794;BME280;26502;51.886;15.604;2023-05-12T02:40:55;100975.28;;;9.24;55.39
40794;BME280;26502;51.886;15.604;2023-05-12T02:46:03;100979.11;;;9.19;55.55
40794;BME280;26502;51.886;15.604;2023-05-12T02:51:09;100978.63;;;9.17;55.63
40794;BME280;26502;51.886;15.604;2023-05-12T02:56:15;100976.69;;;9.17;55.65
40794;BME280;26502;51.886;15.604;2023-05-12T03:01:21;100978.56;;;9.12;55.72
40794;BME280;26502;51.886;15.604;2023-05-12T03:06:29;100974.48;;;9.04;55.90
40794;BME280;26502;51.886;15.604;2023-05-12T03:11:35;100973.49;;;9.00;56.02
40794;BME280;26502;51.886;15.604;2023-05-12T03:16:41;100978.30;;;8.90;56.21
40794;BME280;26502;51.886;15.604;2023-05-12T03:21:47;100979.93;;;8.81;56.30
40794;BME280;26502;51.886;15.604;2023-05-12T03:26:53;100981.45;;;8.75;56.44
40794;BME280;26502;51.886;15.604;2023-05-12T03:32:00;100985.83;;;8.69;56.70
40794;BME280;26502;51.886;15.604;2023-05-12T03:37:08;100988.99;;;8.69;56.92
40794;BME280;26502;51.886;15.604;2023-05-12T03:42:14;100987.21;;;8.79;57.06
40794;BME280;26502;51.886;15.604;2023-05-12T03:47:21;100989.59;;;8.84;57.15
40794;BME280;26502;51.886;15.604;2023-05-12T03:52:27;100993.14;;;8.92;57.34
40794;BME280;26502;51.886;15.604;2023-05-12T03:57:33;100996.13;;;9.02;57.39
40794;BME280;26502;51.886;15.604;2023-05-12T04:02:40;100998.43;;;9.11;57.43
40794;BME280;26502;51.886;15.604;2023-05-12T04:07:47;101005.23;;;9.16;57.66
40794;BME280;26502;51.886;15.604;2023-05-12T04:12:54;101007.17;;;9.16;57.62
40794;BME280;26502;51.886;15.604;2023-05-12T04:18:02;101006.71;;;9.21;57.79
40794;BME280;26502;51.886;15.604;2023-05-12T04:23:08;101007.28;;;9.27;57.94
40794;BME280;26502;51.886;15.604;2023-05-12T04:28:15;101006.02;;;9.37;58.05
40794;BME280;26502;51.886;15.604;2023-05-12T04:33:22;101008.58;;;9.49;58.05
40794;BME280;26502;51.886;15.604;2023-05-12T04:38:28;101009.13;;;9.64;58.06
40794;BME280;26502;51.886;15.604;2023-05-12T04:43:34;101012.42;;;9.82;58.02
40794;BME280;26502;51.886;15.604;2023-05-12T04:48:41;101012.58;;;9.98;57.98
40794;BME280;26502;51.886;15.604;2023-05-12T04:53:47;101012.58;;;10.12;57.93
40794;BME280;26502;51.886;15.604;2023-05-12T04:58:54;101010.88;;;10.30;57.80
40794;BME280;26502;51.886;15.604;2023-05-12T05:04:00;101014.04;;;10.53;57.74
40794;BME280;26502;51.886;15.604;2023-05-12T05:09:07;101017.62;;;10.84;57.50
40794;BME280;26502;51.886;15.604;2023-05-12T05:14:13;101025.13;;;11.20;57.27
40794;BME280;26502;51.886;15.604;2023-05-12T05:19:19;101026.00;;;11.50;57.16
40794;BME280;26502;51.886;15.604;2023-05-12T05:24:25;101023.51;;;11.79;56.85
40794;BME280;26502;51.886;15.604;2023-05-12T05:29:32;101022.13;;;12.11;56.47
40794;BME280;26502;51.886;15.604;2023-05-12T05:34:38;101018.80;;;12.36;56.16
40794;BME280;26502;51.886;15.604;2023-05-12T05:39:45;101021.80;;;12.57;55.83
40794;BME280;26502;51.886;15.604;2023-05-12T05:44:51;101023.82;;;12.81;55.48
40794;BME280;26502;51.886;15.604;2023-05-12T05:49:58;101023.77;;;13.11;55.11
40794;BME280;26502;51.886;15.604;2023-05-12T05:55:05;101027.41;;;13.43;54.50
40794;BME280;26502;51.886;15.604;2023-05-12T06:00:14;101030.95;;;13.58;54.10
40794;BME280;26502;51.886;15.604;2023-05-12T06:05:24;101031.45;;;13.72;53.59
40794;BME280;26502;51.886;15.604;2023-05-12T06:10:30;101034.06;;;14.00;53.33
40794;BME280;26502;51.886;15.604;2023-05-12T06:15:36;101035.31;;;14.26;53.25
40794;BME280;26502;51.886;15.604;2023-05-12T06:20:42;101035.96;;;14.45;52.75
40794;BME280;26502;51.886;15.604;2023-05-12T06:25:49;101039.31;;;14.63;52.39
40794;BME280;26502;51.886;15.604;2023-05-12T06:30:55;101045.65;;;14.78;51.95
40794;BME280;26502;51.886;15.604;2023-05-12T06:36:03;101050.35;;;14.92;51.46
40794;BME280;26502;51.886;15.604;2023-05-12T06:41:10;101049.03;;;15.14;51.27
40794;BME280;26502;51.886;15.604;2023-05-12T06:46:17;101051.08;;;15.47;50.83
40794;BME280;26502;51.886;15.604;2023-05-12T06:51:23;101048.28;;;15.64;50.77
40794;BME280;26502;51.886;15.604;2023-05-12T06:56:29;101043.39;;;15.82;50.22
40794;BME280;26502;51.886;15.604;2023-05-12T07:01:35;101040.31;;;15.97;49.89
40794;BME280;26502;51.886;15.604;2023-05-12T07:06:42;101034.89;;;16.23;49.59
40794;BME280;26502;51.886;15.604;2023-05-12T07:11:48;101036.30;;;16.45;49.24
40794;BME280;26502;51.886;15.604;2023-05-12T07:16:54;101038.02;;;16.78;48.78
40794;BME280;26502;51.886;15.604;2023-05-12T07:22:00;101036.02;;;16.99;48.38
40794;BME280;26502;51.886;15.604;2023-05-12T07:27:07;101033.73;;;17.15;47.90
40794;BME280;26502;51.886;15.604;2023-05-12T07:32:13;101029.67;;;17.37;47.33
40794;BME280;26502;51.886;15.604;2023-05-12T07:37:19;101026.14;;;17.58;47.20
40794;BME280;26502;51.886;15.604;2023-05-12T07:42:25;101029.11;;;17.79;46.63
40794;BME280;26502;51.886;15.604;2023-05-12T07:47:32;101031.05;;;18.05;46.09
40794;BME280;26502;51.886;15.604;2023-05-12T07:52:37;101026.85;;;18.19;45.22
40794;BME280;26502;51.886;15.604;2023-05-12T07:57:50;101029.66;;;18.41;44.61
40794;BME280;26502;51.886;15.604;2023-05-12T08:02:57;101032.52;;;18.62;44.14
40794;BME280;26502;51.886;15.604;2023-05-12T08:08:03;101035.64;;;18.88;43.80
40794;BME280;26502;51.886;15.604;2023-05-12T08:13:09;101036.54;;;19.23;43.56
40794;BME280;26502;51.886;15.604;2023-05-12T08:18:15;101034.59;;;19.23;42.73
40794;BME280;26502;51.886;15.604;2023-05-12T08:23:21;101034.73;;;19.46;42.53
40794;BME280;26502;51.886;15.604;2023-05-12T08:28:27;101036.42;;;19.67;41.89
40794;BME280;26502;51.886;15.604;2023-05-12T08:33:34;101024.35;;;19.79;41.61
40794;BME280;26502;51.886;15.604;2023-05-12T08:38:40;101024.56;;;19.98;41.15
40794;BME280;26502;51.886;15.604;2023-05-12T08:43:49;101021.69;;;20.35;40.96
40794;BME280;26502;51.886;15.604;2023-05-12T08:48:58;101015.09;;;20.61;39.97
40794;BME280;26502;51.886;15.604;2023-05-12T08:54:08;101018.23;;;20.68;39.20
40794;BME280;26502;51.886;15.604;2023-05-12T08:59:16;101013.98;;;20.82;39.04
40794;BME280;26502;51.886;15.604;2023-05-12T09:04:22;101011.79;;;20.93;38.53
40794;BME280;26502;51.886;15.604;2023-05-12T09:09:29;101009.59;;;21.11;38.17
40794;BME280;26502;51.886;15.604;2023-05-12T09:14:37;101004.43;;;21.30;37.87
40794;BME280;26502;51.886;15.604;2023-05-12T09:19:45;101007.81;;;21.41;37.35
40794;BME280;26502;51.886;15.604;2023-05-12T09:24:51;101011.24;;;21.56;36.95
40794;BME280;26502;51.886;15.604;2023-05-12T09:29:57;101010.55;;;21.66;36.73
40794;BME280;26502;51.886;15.604;2023-05-12T09:35:08;101008.63;;;21.70;35.57
40794;BME280;26502;51.886;15.604;2023-05-12T09:40:16;101002.21;;;21.53;35.21
40794;BME280;26502;51.886;15.604;2023-05-12T09:45:24;101000.38;;;21.76;35.36
40794;BME280;26502;51.886;15.604;2023-05-12T09:50:30;101000.38;;;21.93;34.68
40794;BME280;26502;51.886;15.604;2023-05-12T09:55:36;101004.81;;;21.89;34.31
40794;BME280;26502;51.886;15.604;2023-05-12T10:00:43;100995.97;;;21.99;34.21
40794;BME280;26502;51.886;15.604;2023-05-12T10:05:51;100994.94;;;22.32;33.94
40794;BME280;26502;51.886;15.604;2023-05-12T10:10:56;100992.05;;;22.43;33.76
40794;BME280;26502;51.886;15.604;2023-05-12T10:16:05;100992.27;;;22.50;33.36
40794;BME280;26502;51.886;15.604;2023-05-12T10:21:12;100990.42;;;22.83;33.12
40794;BME280;26502;51.886;15.604;2023-05-12T10:26:20;100989.52;;;22.85;32.60
40794;BME280;26502;51.886;15.604;2023-05-12T10:31:27;100987.27;;;22.91;32.29
40794;BME280;26502;51.886;15.604;2023-05-12T10:36:43;100980.98;;;23.02;32.01
40794;BME280;26502;51.886;15.604;2023-05-12T10:42:01;100985.42;;;23.12;31.86
40794;BME280;26502;51.886;15.604;2023-05-12T10:47:14;100985.96;;;23.28;31.57
40794;BME280;26502;51.886;15.604;2023-05-12T10:52:21;100989.70;;;23.40;30.92
40794;BME280;26502;51.886;15.604;2023-05-12T10:57:27;100987.68;;;23.53;31.06
40794;BME280;26502;51.886;15.604;2023-05-12T11:02:34;100985.37;;;23.77;30.88
40794;BME280;26502;51.886;15.604;2023-05-12T11:07:47;100976.27;;;24.00;30.52
40794;BME280;26502;51.886;15.604;2023-05-12T11:12:55;100986.27;;;24.21;30.39
40794;BME280;26502;51.886;15.604;2023-05-12T11:18:03;100981.33;;;24.17;29.76
40794;BME280;26502;51.886;15.604;2023-05-12T11:23:09;100972.19;;;23.81;29.42
40794;BME280;26502;51.886;15.604;2023-05-12T11:28:16;100979.84;;;23.43;29.52
40794;BME280;26502;51.886;15.604;2023-05-12T11:33:22;100969.48;;;23.30;29.84
40794;BME280;26502;51.886;15.604;2023-05-12T11:38:28;100971.73;;;23.65;29.91
40794;BME280;26502;51.886;15.604;2023-05-12T11:43:34;100967.83;;;23.86;29.82
40794;BME280;26502;51.886;15.604;2023-05-12T11:48:40;100969.91;;;23.80;29.50
40794;BME280;26502;51.886;15.604;2023-05-12T11:53:47;100962.27;;;24.17;29.39
40794;BME280;26502;51.886;15.604;2023-05-12T11:58:55;100972.27;;;24.55;29.26
40794;BME280;26502;51.886;15.604;2023-05-12T12:04:01;100965.94;;;24.95;28.95
40794;BME280;26502;51.886;15.604;2023-05-12T12:09:07;100968.05;;;24.87;28.66
40794;BME280;26502;51.886;15.604;2023-05-12T12:14:14;100967.61;;;24.80;28.37
40794;BME280;26502;51.886;15.604;2023-05-12T12:19:20;100963.80;;;25.19;28.42
40794;BME280;26502;51.886;15.604;2023-05-12T12:24:26;100961.70;;;24.99;27.88
40794;BME280;26502;51.886;15.604;2023-05-12T12:29:32;100968.83;;;24.40;27.73
40794;BME280;26502;51.886;15.604;2023-05-12T12:34:38;100969.52;;;24.04;27.98
40794;BME280;26502;51.886;15.604;2023-05-12T12:39:44;100975.21;;;23.84;28.30
40794;BME280;26502;51.886;15.604;2023-05-12T12:44:51;100970.40;;;23.57;28.21
40794;BME280;26502;51.886;15.604;2023-05-12T12:49:57;100961.91;;;24.02;28.45
40794;BME280;26502;51.886;15.604;2023-05-12T12:55:05;100963.14;;;24.56;27.98
40794;BME280;26502;51.886;15.604;2023-05-12T13:00:13;100973.02;;;24.31;27.63
40794;BME280;26502;51.886;15.604;2023-05-12T13:05:19;100969.81;;;23.81;27.85
40794;BME280;26502;51.886;15.604;2023-05-12T13:10:25;100963.40;;;24.01;27.87
40794;BME280;26502;51.886;15.604;2023-05-12T13:15:31;100957.13;;;24.79;27.68
40794;BME280;26502;51.886;15.604;2023-05-12T13:20:37;100962.88;;;24.44;27.12
40794;BME280;26502;51.886;15.604;2023-05-12T13:25:44;100968.00;;;23.90;27.17
40794;BME280;26502;51.886;15.604;2023-05-12T13:30:51;100976.16;;;23.37;27.58
40794;BME280;26502;51.886;15.604;2023-05-12T13:35:57;100972.52;;;23.17;27.60
40794;BME280;26502;51.886;15.604;2023-05-12T13:41:03;100970.61;;;23.14;27.84
40794;BME280;26502;51.886;15.604;2023-05-12T13:46:09;100956.92;;;23.70;27.91
40794;BME280;26502;51.886;15.604;2023-05-12T13:51:15;100952.29;;;24.32;27.77
40794;BME280;26502;51.886;15.604;2023-05-12T13:56:23;100954.10;;;23.93;27.48
40794;BME280;26502;51.886;15.604;2023-05-12T14:01:31;100965.77;;;23.44;27.51
40794;BME280;26502;51.886;15.604;2023-05-12T14:06:35;100965.11;;;23.12;27.76
40794;BME280;26502;51.886;15.604;2023-05-12T14:11:41;100964.63;;;22.91;27.82
40794;BME280;26502;51.886;15.604;2023-05-12T14:16:48;100960.40;;;23.12;28.06
40794;BME280;26502;51.886;15.604;2023-05-12T14:21:53;100954.73;;;23.47;27.80
40794;BME280;26502;51.886;15.604;2023-05-12T14:27:00;100953.83;;;23.04;28.23
40794;BME280;26502;51.886;15.604;2023-05-12T14:32:06;100956.13;;;22.98;28.40
40794;BME280;26502;51.886;15.604;2023-05-12T14:37:13;100951.84;;;23.79;28.22
40794;BME280;26502;51.886;15.604;2023-05-12T14:42:18;100946.64;;;24.64;27.97
40794;BME280;26502;51.886;15.604;2023-05-12T14:47:25;100942.02;;;25.00;27.56
40794;BME280;26502;51.886;15.604;2023-05-12T14:52:30;100953.14;;;24.58;27.25
40794;BME280;26502;51.886;15.604;2023-05-12T14:57:42;100956.27;;;24.11;27.12
40794;BME280;26502;51.886;15.604;2023-05-12T15:02:48;100953.33;;;24.07;27.31
40794;BME280;26502;51.886;15.604;2023-05-12T15:07:54;100956.64;;;24.59;27.31
40794;BME280;26502;51.886;15.604;2023-05-12T15:13:00;100950.44;;;25.20;27.22
40794;BME280;26502;51.886;15.604;2023-05-12T15:18:06;100952.30;;;25.70;26.74
40794;BME280;26502;51.886;15.604;2023-05-12T15:23:12;100954.98;;;25.84;26.63
40794;BME280;26502;51.886;15.604;2023-05-12T15:28:18;100956.59;;;25.54;26.46
40794;BME280;26502;51.886;15.604;2023-05-12T15:33:25;100959.70;;;24.68;26.35
40794;BME280;26502;51.886;15.604;2023-05-12T15:38:31;100959.52;;;24.13;26.82
40794;BME280;26502;51.886;15.604;2023-05-12T15:43:38;100956.23;;;24.01;27.17
40794;BME280;26502;51.886;15.604;2023-05-12T15:48:44;100956.17;;;24.57;27.12
40794;BME280;26502;51.886;15.604;2023-05-12T15:53:53;100950.78;;;24.89;27.01
40794;BME280;26502;51.886;15.604;2023-05-12T15:58:59;100950.62;;;25.18;26.85
40794;BME280;26502;51.886;15.604;2023-05-12T16:04:05;100949.08;;;25.08;26.65
40794;BME280;26502;51.886;15.604;2023-05-12T16:09:11;100952.11;;;24.70;26.83
40794;BME280;26502;51.886;15.604;2023-05-12T16:14:17;100955.05;;;24.40;26.84
40794;BME280;26502;51.886;15.604;2023-05-12T16:19:23;100957.37;;;23.82;26.98
40794;BME280;26502;51.886;15.604;2023-05-12T16:24:29;100956.54;;;23.53;27.35
40794;BME280;26502;51.886;15.604;2023-05-12T16:29:35;100959.13;;;23.33;27.76
40794;BME280;26502;51.886;15.604;2023-05-12T16:34:41;100953.70;;;23.01;27.79
40794;BME280;26502;51.886;15.604;2023-05-12T16:39:48;100956.50;;;22.79;28.05
40794;BME280;26502;51.886;15.604;2023-05-12T16:44:54;100952.99;;;22.78;28.21
40794;BME280;26502;51.886;15.604;2023-05-12T16:50:00;100953.55;;;22.59;28.17
40794;BME280;26502;51.886;15.604;2023-05-12T16:55:07;100953.65;;;22.51;28.38
40794;BME280;26502;51.886;15.604;2023-05-12T17:00:16;100952.48;;;22.40;28.54
40794;BME280;26502;51.886;15.604;2023-05-12T17:05:22;100950.70;;;22.30;28.77
40794;BME280;26502;51.886;15.604;2023-05-12T17:10:28;100957.19;;;22.19;28.84
40794;BME280;26502;51.886;15.604;2023-05-12T17:15:35;100962.52;;;22.04;29.00
40794;BME280;26502;51.886;15.604;2023-05-12T17:20:41;100961.06;;;21.85;29.26
40794;BME280;26502;51.886;15.604;2023-05-12T17:25:47;100963.08;;;21.65;29.42
40794;BME280;26502;51.886;15.604;2023-05-12T17:30:53;100970.52;;;21.47;29.61
40794;BME280;26502;51.886;15.604;2023-05-12T17:36:03;100974.34;;;21.34;29.99
40794;BME280;26502;51.886;15.604;2023-05-12T17:41:09;100981.00;;;21.30;30.14
40794;BME280;26502;51.886;15.604;2023-05-12T17:46:16;100987.59;;;21.18;30.19
40794;BME280;26502;51.886;15.604;2023-05-12T17:51:22;100993.55;;;21.08;30.29
40794;BME280;26502;51.886;15.604;2023-05-12T17:56:28;100998.77;;;20.93;30.46
40794;BME280;26502;51.886;15.604;2023-05-12T18:01:34;101001.23;;;20.84;30.71
40794;BME280;26502;51.886;15.604;2023-05-12T18:06:40;101005.44;;;20.78;30.89
40794;BME280;26502;51.886;15.604;2023-05-12T18:11:46;101009.98;;;20.64;31.24
40794;BME280;26502;51.886;15.604;2023-05-12T18:16:52;101017.45;;;20.50;31.48
40794;BME280;26502;51.886;15.604;2023-05-12T18:21:58;101023.55;;;20.37;31.86
40794;BME280;26502;51.886;15.604;2023-05-12T18:27:06;101023.14;;;20.25;31.94
40794;BME280;26502;51.886;15.604;2023-05-12T18:32:12;101032.26;;;20.04;32.33
40794;BME280;26502;51.886;15.604;2023-05-12T18:37:18;101034.34;;;19.89;32.58
40794;BME280;26502;51.886;15.604;2023-05-12T18:42:24;101045.70;;;19.75;32.68
40794;BME280;26502;51.886;15.604;2023-05-12T18:47:30;101054.12;;;19.67;33.06
40794;BME280;26502;51.886;15.604;2023-05-12T18:52:36;101059.63;;;19.57;33.13
40794;BME280;26502;51.886;15.604;2023-05-12T18:57:42;101062.67;;;19.40;33.27
40794;BME280;26502;51.886;15.604;2023-05-12T19:02:52;101068.89;;;19.21;33.31
40794;BME280;26502;51.886;15.604;2023-05-12T19:07:58;101071.42;;;19.06;33.87
40794;BME280;26502;51.886;15.604;2023-05-12T19:13:04;101078.06;;;18.95;33.93
40794;BME280;26502;51.886;15.604;2023-05-12T19:18:10;101080.14;;;18.84;34.24
40794;BME280;26502;51.886;15.604;2023-05-12T19:23:16;101089.23;;;18.77;34.06
40794;BME280;26502;51.886;15.604;2023-05-12T19:28:22;101089.90;;;18.71;34.27
40794;BME280;26502;51.886;15.604;2023-05-12T19:33:28;101095.42;;;18.57;34.51
40794;BME280;26502;51.886;15.604;2023-05-12T19:38:35;101096.02;;;18.41;34.76
40794;BME280;26502;51.886;15.604;2023-05-12T19:43:42;101104.78;;;18.36;34.70
40794;BME280;26502;51.886;15.604;2023-05-12T19:48:48;101109.10;;;18.26;34.95
40794;BME280;26502;51.886;15.604;2023-05-12T19:53:55;101108.70;;;18.21;35.27
40794;BME280;26502;51.886;15.604;2023-05-12T19:59:01;101114.21;;;18.19;35.26
40794;BME280;26502;51.886;15.604;2023-05-12T20:04:07;101122.66;;;18.12;35.31
40794;BME280;26502;51.886;15.604;2023-05-12T20:09:14;101129.52;;;18.06;35.78
40794;BME280;26502;51.886;15.604;2023-05-12T20:14:19;101127.70;;;17.96;35.94
40794;BME280;26502;51.886;15.604;2023-05-12T20:19:25;101128.29;;;17.85;36.27
40794;BME280;26502;51.886;15.604;2023-05-12T20:24:32;101133.67;;;17.72;36.53
40794;BME280;26502;51.886;15.604;2023-05-12T20:29:37;101136.68;;;17.53;36.96
40794;BME280;26502;51.886;15.604;2023-05-12T20:34:43;101141.64;;;17.41;37.20
40794;BME280;26502;51.886;15.604;2023-05-12T20:39:49;101142.45;;;17.29;37.39
40794;BME280;26502;51.886;15.604;2023-05-12T20:44:56;101144.79;;;17.15;37.54
40794;BME280;26502;51.886;15.604;2023-05-12T20:50:02;101153.69;;;16.99;37.75
40794;BME280;26502;51.886;15.604;2023-05-12T20:55:10;101151.55;;;16.81;38.01
40794;BME280;26502;51.886;15.604;2023-05-12T21:00:16;101157.21;;;16.58;38.30
40794;BME280;26502;51.886;15.604;2023-05-12T21:05:23;101161.65;;;16.48;38.59
40794;BME280;26502;51.886;15.604;2023-05-12T21:10:31;101168.11;;;16.26;38.71
40794;BME280;26502;51.886;15.604;2023-05-12T21:15:38;101176.22;;;16.10;39.12
40794;BME280;26502;51.886;15.604;2023-05-12T21:20:44;101182.79;;;15.92;39.37
40794;BME280;26502;51.886;15.604;2023-05-12T21:25:52;101185.96;;;15.73;39.72
40794;BME280;26502;51.886;15.604;2023-05-12T21:30:58;101185.14;;;15.55;40.00
40794;BME280;26502;51.886;15.604;2023-05-12T21:36:05;101188.12;;;15.45;40.38
40794;BME280;26502;51.886;15.604;2023-05-12T21:41:11;101188.31;;;15.32;40.73
40794;BME280;26502;51.886;15.604;2023-05-12T21:46:17;101197.69;;;15.19;40.82
40794;BME280;26502;51.886;15.604;2023-05-12T21:51:23;101195.13;;;15.12;41.11
40794;BME280;26502;51.886;15.604;2023-05-12T21:56:29;101198.23;;;15.01;41.42
40794;BME280;26502;51.886;15.604;2023-05-12T22:01:35;101198.55;;;14.90;41.55
40794;BME280;26502;51.886;15.604;2023-05-12T22:12:15;101198.22;;;14.68;42.06
40794;BME280;26502;51.886;15.604;2023-05-12T22:17:22;101203.85;;;14.55;42.24
40794;BME280;26502;51.886;15.604;2023-05-12T22:22:28;101203.54;;;14.41;42.52
40794;BME280;26502;51.886;15.604;2023-05-12T22:27:34;101206.30;;;14.35;42.62
40794;BME280;26502;51.886;15.604;2023-05-12T22:32:40;101205.42;;;14.25;42.89
40794;BME280;26502;51.886;15.604;2023-05-12T22:37:46;101207.84;;;14.14;42.91
40794;BME280;26502;51.886;15.604;2023-05-12T22:42:53;101210.41;;;13.98;43.17
40794;BME280;26502;51.886;15.604;2023-05-12T22:47:59;101215.01;;;13.90;43.43
40794;BME280;26502;51.886;15.604;2023-05-12T22:53:05;101215.70;;;13.85;43.66
40794;BME280;26502;51.886;15.604;2023-05-12T22:58:11;101215.27;;;13.77;43.75
40794;BME280;26502;51.886;15.604;2023-05-12T23:03:18;101218.58;;;13.70;44.00
40794;BME280;26502;51.886;15.604;2023-05-12T23:08:25;101216.77;;;13.66;44.27
40794;BME280;26502;51.886;15.604;2023-05-12T23:13:31;101215.86;;;13.56;44.35
40794;BME280;26502;51.886;15.604;2023-05-12T23:18:37;101219.19;;;13.38;44.57
40794;BME280;26502;51.886;15.604;2023-05-12T23:23:43;101221.45;;;13.29;44.77
40794;BME280;26502;51.886;15.604;2023-05-12T23:28:49;101222.66;;;13.15;44.93
40794;BME280;26502;51.886;15.604;2023-05-12T23:33:55;101221.96;;;12.93;45.05
40794;BME280;26502;51.886;15.604;2023-05-12T23:39:01;101221.58;;;12.78;45.13
40794;BME280;26502;51.886;15.604;2023-05-12T23:44:07;101219.56;;;12.63;45.33
40794;BME280;26502;51.886;15.604;2023-05-12T23:49:13;101216.98;;;12.49;45.64
40794;BME280;26502;51.886;15.604;2023-05-12T23:54:19;101216.98;;;12.32;45.76
40794;BME280;26502;51.886;15.604;2023-05-12T23:59:25;101218.44;;;12.19;46.05
